createdAt,value
2018-07-20T00:01:21.101Z,100.00
2018-07-20T00:03:51.317Z,100.00
2018-07-20T00:06:22.657Z,100.00
2018-07-20T00:08:52.885Z,100.00
2018-07-20T00:11:22.991Z,100.00
2018-07-20T00:13:53.400Z,100.00
2018-07-20T00:16:23.540Z,100.00
2018-07-20T00:18:54.794Z,100.00
2018-07-20T00:21:24.837Z,100.00
2018-07-20T00:23:54.966Z,100.00
2018-07-20T00:26:25.138Z,100.00
2018-07-20T00:28:55.434Z,100.00
2018-07-20T00:31:25.541Z,100.00
2018-07-20T00:33:55.816Z,100.00
2018-07-20T00:36:26.021Z,100.00
2018-07-20T00:38:58.212Z,100.00
2018-07-20T00:41:29.370Z,100.00
2018-07-20T00:43:59.495Z,100.00
2018-07-20T00:46:29.655Z,100.00
2018-07-20T00:49:00.723Z,100.00
2018-07-20T00:51:30.732Z,100.00
2018-07-20T00:54:00.787Z,100.00
2018-07-20T00:56:31.438Z,100.00
2018-07-20T00:59:01.492Z,100.00
2018-07-20T01:01:31.730Z,100.00
2018-07-20T01:04:01.950Z,100.00
2018-07-20T01:06:32.341Z,100.00
2018-07-20T01:09:02.630Z,100.00
2018-07-20T01:11:32.630Z,100.00
2018-07-20T01:14:02.662Z,100.00
2018-07-20T01:16:32.734Z,100.00
2018-07-20T01:19:02.895Z,100.00
2018-07-20T01:21:32.929Z,100.00
2018-07-20T01:24:03.268Z,100.00
2018-07-20T01:26:33.416Z,100.00
2018-07-20T01:29:03.530Z,100.00
2018-07-20T01:31:33.711Z,100.00
2018-07-20T01:34:03.740Z,100.00
2018-07-20T01:36:33.781Z,100.00
2018-07-20T01:39:05.421Z,100.00
2018-07-20T01:41:36.794Z,100.00
2018-07-20T01:44:07.147Z,100.00
2018-07-20T01:46:37.315Z,100.00
2018-07-20T01:49:08.096Z,100.00
2018-07-20T01:51:38.267Z,100.00
2018-07-20T01:54:08.639Z,100.00
2018-07-20T01:56:38.657Z,100.00
2018-07-20T01:59:08.777Z,100.00
2018-07-20T02:01:39.233Z,100.00
2018-07-20T02:04:09.439Z,100.00
2018-07-20T02:06:39.534Z,100.00
2018-07-20T02:09:11.561Z,100.00
2018-07-20T02:11:41.853Z,100.00
2018-07-20T02:14:11.973Z,100.00
2018-07-20T02:16:42.316Z,100.00
2018-07-20T02:19:12.447Z,100.00
2018-07-20T02:21:42.538Z,100.00
2018-07-20T02:24:12.670Z,100.00
2018-07-20T02:26:42.786Z,100.00
2018-07-20T02:29:12.970Z,100.00
2018-07-20T02:31:43.230Z,100.00
2018-07-20T02:34:13.292Z,100.00
2018-07-20T02:36:43.373Z,100.00
2018-07-20T02:39:14.543Z,100.00
2018-07-20T02:41:44.826Z,100.00
2018-07-20T02:44:15.056Z,100.00
2018-07-20T02:46:45.208Z,100.00
2018-07-20T02:49:15.185Z,100.00
2018-07-20T02:51:45.412Z,100.00
2018-07-20T02:54:15.452Z,100.00
2018-07-20T02:56:45.588Z,100.00
2018-07-20T02:59:15.785Z,100.00
2018-07-20T03:01:45.853Z,100.00
2018-07-20T03:04:15.992Z,100.00
2018-07-20T03:06:46.374Z,100.00
2018-07-20T03:09:16.541Z,100.00
2018-07-20T03:11:46.704Z,100.00
2018-07-20T03:14:16.893Z,100.00
2018-07-20T03:16:47.156Z,100.00
2018-07-20T03:19:19.139Z,100.00
2018-07-20T03:21:49.373Z,100.00
2018-07-20T03:24:19.637Z,100.00
2018-07-20T03:26:49.801Z,100.00
2018-07-20T03:29:20.001Z,100.00
2018-07-20T03:31:50.221Z,100.00
2018-07-20T03:34:20.366Z,100.00
2018-07-20T03:36:50.669Z,100.00
2018-07-20T03:39:20.960Z,100.00
2018-07-20T03:41:51.127Z,100.00
2018-07-20T03:44:21.466Z,100.00
2018-07-20T03:46:51.529Z,100.00
2018-07-20T03:49:22.726Z,100.00
2018-07-20T03:51:53.235Z,100.00
2018-07-20T03:54:23.457Z,100.00
2018-07-20T03:56:53.552Z,100.00
2018-07-20T03:59:23.735Z,100.00
2018-07-20T04:01:54.164Z,100.00
2018-07-20T04:04:24.331Z,100.00
2018-07-20T04:06:54.560Z,100.00
2018-07-20T04:09:24.600Z,100.00
2018-07-20T04:11:54.593Z,100.00
2018-07-20T04:14:24.839Z,98.57
2018-07-20T04:16:54.926Z,98.20
2018-07-20T04:19:24.956Z,98.04
2018-07-20T04:21:55.070Z,97.59
2018-07-20T04:24:25.378Z,96.61
2018-07-20T04:26:55.531Z,96.83
2018-07-20T04:29:25.960Z,96.16
2018-07-20T04:31:56.180Z,95.30
2018-07-20T04:34:26.356Z,94.53
2018-07-20T04:36:57.354Z,94.58
2018-07-20T04:39:27.583Z,94.31
2018-07-20T04:41:57.693Z,93.67
2018-07-20T04:44:27.999Z,93.32
2018-07-20T04:46:58.438Z,93.20
2018-07-20T04:49:28.411Z,92.79
2018-07-20T04:51:58.688Z,93.36
2018-07-20T04:54:28.827Z,91.82
2018-07-20T04:56:59.018Z,91.87
2018-07-20T04:59:29.278Z,91.58
2018-07-20T05:01:59.544Z,91.95
2018-07-20T05:04:29.543Z,90.86
2018-07-20T05:06:59.713Z,91.49
2018-07-20T05:09:29.855Z,92.80
2018-07-20T05:12:00.048Z,91.67
2018-07-20T05:14:30.078Z,91.62
2018-07-20T05:17:00.295Z,91.06
2018-07-20T05:19:30.607Z,91.81
2018-07-20T05:22:00.780Z,91.50
2018-07-20T05:24:31.050Z,92.23
2018-07-20T05:27:01.361Z,91.85
2018-07-20T05:29:31.522Z,92.34
2018-07-20T05:32:01.673Z,92.35
2018-07-20T05:34:32.062Z,91.97
2018-07-20T05:37:02.242Z,91.73
2018-07-20T05:39:32.398Z,92.03
2018-07-20T05:42:02.428Z,89.82
2018-07-20T05:44:32.664Z,89.96
2018-07-20T05:47:02.871Z,88.81
2018-07-20T05:49:32.967Z,88.10
2018-07-20T05:52:03.313Z,89.14
2018-07-20T05:54:34.558Z,87.42
2018-07-20T05:57:04.679Z,88.39
2018-07-20T06:06:34.246Z,86.77
2018-07-20T06:09:04.396Z,85.99
2018-07-20T06:11:34.661Z,84.08
2018-07-20T06:14:04.454Z,84.20
2018-07-20T06:16:35.798Z,84.48
2018-07-20T06:19:06.007Z,84.85
2018-07-20T06:21:36.312Z,87.17
2018-07-20T06:24:06.415Z,84.07
2018-07-20T06:26:36.600Z,81.40
2018-07-20T06:29:06.781Z,82.32
2018-07-20T06:31:36.903Z,82.02
2018-07-20T06:34:08.123Z,83.97
2018-07-20T06:36:38.536Z,80.02
2018-07-20T06:39:12.539Z,81.84
2018-07-20T06:41:42.737Z,81.37
2018-07-20T06:44:12.820Z,80.48
2018-07-20T06:46:42.977Z,78.39
2018-07-20T06:49:13.504Z,77.65
2018-07-20T06:51:43.719Z,77.81
2018-07-20T06:54:13.841Z,76.27
2018-07-20T06:56:44.191Z,75.79
2018-07-20T06:59:14.496Z,75.57
2018-07-20T07:01:44.472Z,75.12
2018-07-20T07:04:14.928Z,76.33
2018-07-20T07:06:45.229Z,73.99
2018-07-20T07:09:15.423Z,73.32
2018-07-20T07:11:45.351Z,73.57
2018-07-20T07:14:15.559Z,74.47
2018-07-20T07:16:45.737Z,72.59
2018-07-20T07:19:15.849Z,71.98
2018-07-20T07:21:46.079Z,71.23
2018-07-20T17:52:00.150Z,37.92
2018-07-20T17:54:31.352Z,37.80
2018-07-20T17:57:01.707Z,38.22
2018-07-20T17:59:31.947Z,38.74
2018-07-20T18:02:02.170Z,39.09
2018-07-20T18:04:33.329Z,39.17
2018-07-20T18:07:03.341Z,40.35
2018-07-20T18:09:33.604Z,40.54
2018-07-20T18:12:03.622Z,41.12
2018-07-20T18:14:34.024Z,42.07
2018-07-20T18:17:04.254Z,42.05
2018-07-20T18:19:34.486Z,42.93
2018-07-20T18:22:04.824Z,43.74
2018-07-20T18:24:35.888Z,44.79
2018-07-20T18:27:06.165Z,45.10
2018-07-20T18:29:36.257Z,44.93
2018-07-20T18:32:06.652Z,45.72
2018-07-20T18:34:37.183Z,46.29
2018-07-20T18:37:07.382Z,45.74
2018-07-20T18:39:37.420Z,46.34
2018-07-20T18:42:07.607Z,47.36
2018-07-20T18:44:37.955Z,47.28
2018-07-20T18:47:08.381Z,48.52
2018-07-20T18:49:38.584Z,48.02
2018-07-20T18:52:10.681Z,48.47
2018-07-20T18:54:40.936Z,49.28
2018-07-20T18:57:11.120Z,48.95
2018-07-20T18:59:41.129Z,48.72
2018-07-20T19:02:12.116Z,49.30
2018-07-20T19:04:42.240Z,50.32
2018-07-20T19:07:12.380Z,50.18
2018-07-20T19:09:42.342Z,50.31
2018-07-20T19:12:12.600Z,49.91
2018-07-20T19:14:42.809Z,50.02
2018-07-20T19:17:13.025Z,50.21
2018-07-20T19:19:43.363Z,50.46
2018-07-20T19:22:13.581Z,50.69
2018-07-20T19:24:44.689Z,50.69
2018-07-20T19:27:14.917Z,52.91
2018-07-20T19:29:45.163Z,53.09
2018-07-20T19:32:15.489Z,56.90
2018-07-20T19:34:45.665Z,57.83
2018-07-20T19:37:15.672Z,58.11
2018-07-20T19:39:45.771Z,61.40
2018-07-20T19:42:16.837Z,60.71
2018-07-20T19:44:47.208Z,59.93
2018-07-20T19:47:17.090Z,61.09
2018-07-20T19:49:47.279Z,61.78
2018-07-20T19:52:17.339Z,62.69
2018-07-20T19:54:47.560Z,64.71
2018-07-20T19:57:17.701Z,65.02
2018-07-20T19:59:49.009Z,64.39
2018-07-20T20:02:19.341Z,65.65
2018-07-20T20:04:49.431Z,66.39
2018-07-20T20:07:20.924Z,65.14
2018-07-20T20:09:51.053Z,65.60
2018-07-20T20:12:21.095Z,66.52
2018-07-20T20:14:51.236Z,66.46
2018-07-20T20:17:21.374Z,66.85
2018-07-20T20:19:51.695Z,69.71
2018-07-20T20:22:22.111Z,70.21
2018-07-20T20:24:52.102Z,69.31
2018-07-20T20:27:22.351Z,69.72
2018-07-20T20:29:52.271Z,70.62
2018-07-20T20:32:22.341Z,71.72
2018-07-20T20:34:52.610Z,72.51
2018-07-20T20:37:22.511Z,71.72
2018-07-20T20:39:52.889Z,74.05
2018-07-20T20:42:23.274Z,75.84
2018-07-20T20:44:53.345Z,76.51
2018-07-20T20:47:23.384Z,77.40
2018-07-20T20:49:53.691Z,76.07
2018-07-20T20:52:23.917Z,77.23
2018-07-20T20:54:54.129Z,76.80
2018-07-20T20:57:24.331Z,77.43
2018-07-20T20:59:54.512Z,77.33
2018-07-20T21:02:24.923Z,77.04
2018-07-20T21:04:55.026Z,77.18
2018-07-20T21:07:25.105Z,78.23
2018-07-20T21:09:55.203Z,78.83
2018-07-20T21:12:25.645Z,79.22
2018-07-20T21:14:56.011Z,79.91
2018-07-20T21:17:26.005Z,80.90
2018-07-20T21:19:56.008Z,80.58
2018-07-20T21:22:26.220Z,80.28
2018-07-20T21:24:56.336Z,81.14
2018-07-20T21:27:26.276Z,81.87
2018-07-20T21:29:56.451Z,82.38
2018-07-20T21:32:27.600Z,82.76
2018-07-20T21:34:57.592Z,83.82
2018-07-20T21:37:27.553Z,84.02
2018-07-20T21:39:57.707Z,83.43
2018-07-20T21:42:27.913Z,84.33
2018-07-20T21:44:58.055Z,84.03
2018-07-20T21:47:28.246Z,84.83
2018-07-20T21:49:58.416Z,84.69
2018-07-20T21:52:28.589Z,84.66
2018-07-20T21:54:58.830Z,85.07
2018-07-20T21:57:29.071Z,85.28
2018-07-20T21:59:59.023Z,86.07
2018-07-20T22:02:29.400Z,85.19
2018-07-20T22:04:59.608Z,84.72
2018-07-20T22:07:30.835Z,84.79
2018-07-20T22:10:01.106Z,85.13
2018-07-20T22:12:31.276Z,84.51
2018-07-20T22:15:01.657Z,85.48
2018-07-20T22:17:31.869Z,84.59
2018-07-20T22:20:02.056Z,85.60
2018-07-20T22:22:32.137Z,86.74
2018-07-20T22:25:03.492Z,86.65
2018-07-20T22:27:33.783Z,86.48
2018-07-20T22:30:04.070Z,87.62
2018-07-20T22:32:34.285Z,88.27
2018-07-20T22:35:04.503Z,87.83
2018-07-20T22:37:34.504Z,87.17
2018-07-20T22:40:04.735Z,88.79
2018-07-20T22:42:35.905Z,89.06
2018-07-20T22:45:06.190Z,89.52
2018-07-20T22:47:36.126Z,90.09
2018-07-20T22:50:07.248Z,90.61
2018-07-20T22:52:37.388Z,89.79
2018-07-20T22:55:07.492Z,89.40
2018-07-20T22:57:37.460Z,89.19
2018-07-20T23:00:07.366Z,90.03
2018-07-20T23:02:37.483Z,90.02
2018-07-20T23:05:07.515Z,89.56
2018-07-20T23:07:37.553Z,89.80
2018-07-20T23:10:07.447Z,91.08
2018-07-20T23:12:37.598Z,90.93
2018-07-20T23:15:07.986Z,91.05
2018-07-20T23:17:39.267Z,90.94
2018-07-20T23:20:09.264Z,90.87
2018-07-20T23:22:39.618Z,91.54
2018-07-20T23:25:09.774Z,91.21
2018-07-20T23:27:41.041Z,91.58
2018-07-20T23:30:11.013Z,91.18
2018-07-20T23:32:41.186Z,91.81
2018-07-20T23:35:11.368Z,91.49
2018-07-20T23:37:42.275Z,92.62
2018-07-20T23:40:12.287Z,93.73
2018-07-20T23:42:43.258Z,94.74
2018-07-20T23:45:13.357Z,95.88
2018-07-20T23:47:43.516Z,96.32
2018-07-20T23:50:13.649Z,96.69
2018-07-20T23:52:43.558Z,96.18
2018-07-20T23:55:13.909Z,95.52
2018-07-20T23:57:44.032Z,94.84
